^^
Station Historical Data
Daily Summary for October 25, 2017 Units:  Metric    English   Both
« Previous Day
Next Day »
Daily Weekly Monthly Yearly Custom
  High: Low: Average:
Temperature: 28.6 °C 15.4 °C 23.8 °C
Dew Point: 8.6 °C -9.2 °C -1.8 °C
Humidity: 55% 8% 22%
Wind Speed: 30.6km/h 13km/h 20km/h
Wind Gust: 33.8km/h - -
Wind- - SSW
Pressure: 1013.1 hPa 1009 hPa -
Precipitation: 0 mm    
Historical Graphs
 
 
Tabular Data for October 25, 2017
Time Temperature Dew Point Pressure Wind Wind Speed Wind Gust Humidity Rainfall Rate (Hourly) solar Conditions
05:37 15.5 °C -1.6 °C 1011.7 hPa SSW 14.3 km/h 17.7 km/h 31% 0 mm 0.0 W/m2
05:42 15.4 °C -1.7 °C 1011.7 hPa SSW 16.3 km/h 20.9 km/h 31% 0 mm 0.0 W/m2
07:47 16.4 °C 4.1 °C 1012.8 hPa SSW 16.3 km/h 20.9 km/h 44% 0 mm 244.0 W/m2
07:54 16.4 °C 4.1 °C 1012.8 hPa SSW 16.3 km/h 20.9 km/h 44% 0 mm 244.0 W/m2
08:02 17.1 °C 4.1 °C 1012.8 hPa SSW 19.5 km/h 24.1 km/h 42% 0 mm 316.0 W/m2
08:23 17.4 °C 4.7 °C 1012.8 hPa SW 17.7 km/h 24.1 km/h 43% 0 mm 338.0 W/m2
08:33 18 °C 4.2 °C 1012.8 hPa SW 19.5 km/h 22.5 km/h 40% 0 mm 374.0 W/m2
08:54 18.8 °C 3.4 °C 1012.8 hPa SSW 19.5 km/h 25.7 km/h 36% 0 mm 420.0 W/m2
09:09 19.4 °C 1.8 °C 1012.8 hPa SSW 22.7 km/h 22.7 km/h 31% 0 mm 464.0 W/m2
09:25 20.1 °C 0.5 °C 1013.1 hPa SSW 16.3 km/h 22.5 km/h 27% 0 mm 504.0 W/m2
09:33 20.7 °C -0.6 °C 1012.8 hPa SSW 14.3 km/h 24.1 km/h 24% 0 mm 548.0 W/m2
09:53 21.4 °C -1.2 °C 1013.1 hPa SSW 20.9 km/h 22.5 km/h 22% 0 mm 599.0 W/m2
10:13 22.1 °C -2.6 °C 1012.8 hPa SSW 16.3 km/h 22.5 km/h 19% 0 mm 649.0 W/m2
10:28 22.9 °C -3.5 °C 1012.8 hPa SSW 19.5 km/h 22.5 km/h 17% 0 mm 686.0 W/m2
10:43 23.4 °C -3.9 °C 1012.8 hPa SSW 19.5 km/h 27.4 km/h 16% 0 mm 714.0 W/m2
10:53 23.7 °C -3.6 °C 1012.4 hPa SSW 17.7 km/h 24.1 km/h 16% 0 mm 737.0 W/m2
11:08 24 °C -3.4 °C 1012.4 hPa SSW 17.7 km/h 27.4 km/h 16% 0 mm 759.0 W/m2
11:23 24.2 °C -3.2 °C 1012.4 hPa SSW 17.7 km/h 25.7 km/h 16% 0 mm 782.0 W/m2
11:39 24.9 °C -3.5 °C 1012.1 hPa SSW 14.3 km/h 22.5 km/h 15% 0 mm 800.0 W/m2
12:00 25.2 °C -3.3 °C 1011.7 hPa SSW 16.3 km/h 22.5 km/h 15% 0 mm 814.0 W/m2
12:09 25.5 °C -4 °C 1011.7 hPa SSW 20.9 km/h 29 km/h 14% 0 mm 826.0 W/m2
12:24 25.9 °C -4.6 °C 1011.4 hPa SSW 16.3 km/h 30.6 km/h 13% 0 mm 833.0 W/m2
12:39 26.2 °C -4.4 °C 1011.4 hPa SSW 22.7 km/h 25.7 km/h 13% 0 mm 835.0 W/m2
12:54 27.2 °C -3.6 °C 1011.1 hPa SSW 24.1 km/h 27.4 km/h 13% 0 mm 837.0 W/m2
13:09 27.3 °C -4.6 °C 1011.1 hPa SSW 24.1 km/h 29 km/h 12% 0 mm 833.0 W/m2
13:24 27.4 °C -5.7 °C 1010.7 hPa SSW 17.7 km/h 22.5 km/h 11% 0 mm 823.0 W/m2
13:39 27.3 °C -7 °C 1010.7 hPa South 22.7 km/h 30.6 km/h 10% 0 mm 809.0 W/m2
13:54 27.6 °C -6.8 °C 1010.7 hPa SSW 13 km/h 24.1 km/h 10% 0 mm 793.0 W/m2
14:04 28.1 °C -6.4 °C 1010.7 hPa South 24.1 km/h 30.6 km/h 10% 0 mm 777.0 W/m2
14:20 27.9 °C -5.3 °C 1010.4 hPa South 19.5 km/h 25.7 km/h 11% 0 mm 763.0 W/m2
14:30 28.1 °C -6.4 °C 1010.4 hPa South 14.3 km/h 25.7 km/h 10% 0 mm 737.0 W/m2
14:45 28 °C -7.8 °C 1010 hPa South 19.5 km/h 33.8 km/h 9% 0 mm 707.0 W/m2
15:06 28.2 °C -7.7 °C 1010 hPa South 22.7 km/h 33.8 km/h 9% 0 mm 679.0 W/m2
15:20 28.2 °C -9.2 °C 1009.7 hPa SSW 22.7 km/h 27.4 km/h 8% 0 mm 643.0 W/m2
15:25 28.2 °C -7.7 °C 1009.7 hPa South 22.7 km/h 30.6 km/h 9% 0 mm 617.0 W/m2
15:35 28.4 °C -9 °C 1009.4 hPa South 22.7 km/h 30.6 km/h 8% 0 mm 594.0 W/m2
15:51 28.5 °C -9 °C 1009.4 hPa South 25.9 km/h 30.6 km/h 8% 0 mm 571.0 W/m2
16:00 28.6 °C -8.9 °C 1009.4 hPa South 19.5 km/h 29 km/h 8% 0 mm 524.0 W/m2
16:06 28.6 °C -8.9 °C 1009.4 hPa South 19.5 km/h 29 km/h 8% 0 mm 524.0 W/m2
16:16 28.3 °C -9.1 °C 1009 hPa SSW 19.5 km/h 27.4 km/h 8% 0 mm 478.0 W/m2
16:31 28.3 °C -6.2 °C 1009.4 hPa SSW 25.9 km/h 30.6 km/h 10% 0 mm 432.0 W/m2
16:53 27.8 °C -5.4 °C 1009.4 hPa South 17.7 km/h 27.4 km/h 11% 0 mm 387.0 W/m2
17:01 27.7 °C -5.4 °C 1009.4 hPa South 27.4 km/h 27.4 km/h 11% 0 mm 338.0 W/m2
17:16 27.5 °C -4.4 °C 1009.4 hPa South 22.7 km/h 25.7 km/h 12% 0 mm 294.0 W/m2
17:31 27.1 °C -3.7 °C 1009.4 hPa South 22.7 km/h 32.2 km/h 13% 0 mm 244.0 W/m2
17:46 27.1 °C -3.7 °C 1009.7 hPa South 24.1 km/h 25.7 km/h 13% 0 mm 197.0 W/m2
18:06 26.6 °C -2.2 °C 1009.7 hPa South 22.7 km/h 29 km/h 15% 0 mm 139.0 W/m2
18:16 26.1 °C -0.9 °C 1010 hPa South 22.7 km/h 32.2 km/h 17% 0 mm 84.0 W/m2
18:26 25.9 °C -1 °C 1010 hPa South 16.3 km/h 29 km/h 17% 0 mm 54.0 W/m2
18:41 25.4 °C -1.4 °C 1010 hPa South 22.7 km/h 29 km/h 17% 0 mm 18.0 W/m2
18:57 24.8 °C -1.1 °C 1010 hPa SSW 27.4 km/h 32.2 km/h 18% 0 mm 5.0 W/m2
19:52 22.7 °C 6 °C 1011.1 hPa South 22.7 km/h 29 km/h 34% 0 mm 0.0 W/m2
20:42 20.6 °C 7.2 °C 1011.7 hPa SSE 30.6 km/h 32.2 km/h 42% 0 mm 0.0 W/m2
21:15 19.7 °C 7.4 °C 1012.1 hPa South 22.7 km/h 25.7 km/h 45% 0 mm 0.0 W/m2
21:36 19.3 °C 7.4 °C 1012.4 hPa South 27.4 km/h 27.4 km/h 46% 0 mm 0.0 W/m2
21:55 18.9 °C 8 °C 1012.8 hPa SSE 14.3 km/h 22.5 km/h 49% 0 mm 0.0 W/m2
22:12 18.5 °C 8.2 °C 1012.8 hPa South 13 km/h 19.3 km/h 51% 0 mm 0.0 W/m2
22:21 18.3 °C 8.3 °C 1012.8 hPa South 19.5 km/h 24.1 km/h 52% 0 mm 0.0 W/m2
22:27 18.1 °C 8.6 °C 1012.8 hPa South 17.7 km/h 20.9 km/h 54% 0 mm 0.0 W/m2
22:39 17.8 °C 8.6 °C 1012.8 hPa South 14.3 km/h 19.3 km/h 55% 0 mm 0.0 W/m2
Canyon Roadhouse, Fishriver Canyon, Namibia
Compliments of Weather Underground - 2 mb